Airfield :







YOU CAN JOIN US ON...

 
LOGIN :

Register | Disclaimer

   EN    FR    IT 

 









Legend :    VFR   Marginal VFR   IFR   Intensive IFR   Very Intensive IFR
Visi :
Ceiling :
>= 8 km
>= 3000ft
5 to 8 km
1000 to 3000 ft
1500m to 5 km
500 to 1000 ft
800 to 1500m
200 to 500 ft
< 800m
< 200 ft
Symbols :   Thunderstorms  Fog  Heavy snow  Heavy precipitations  Wind > 20 kt






- Airport Elevation : 792 ft
- IATA code : YSC


CYSC - Sherbrooke

CURRENT METAR :
  • 131418Z AUTO 16014G20KT 1 3/4SM -SN OVC020 M13/M16 A3011 RMK SLP217

EXPIRED METARs :
  • 131400Z AUTO 15009G18KT 3SM -SN OVC020 M13/M16 A3010 RMK SLP215
  • 131318Z AUTO 15009KT 5SM -SN BKN019 BKN025 OVC030 M13/M16 A3008 RMK SLP207
  • 131307Z AUTO 15011G20KT 4SM -SN FEW009 SCT014 BKN023 OVC042 M13/M16 A3007 RMK PRESRR SLP205
  • 131256Z AUTO 15016G22KT 3SM -SN FEW009 BKN014 OVC042 M13/M16 A3006 RMK PRESRR SLP200
  • 131234Z AUTO 16018G23KT 2 1/2SM -SN FEW016 BKN027 OVC036 M13/M16 A3004 RMK SLP193
  • 131208Z AUTO 16018KT 5SM -SN FEW017 OVC027 M13/M17 A3003 RMK SLP188
  • 131158Z AUTO 15013KT 7SM -SN SCT015 OVC027 M14/M17 A3002 RMK PRESRR SLP187
  • 131140Z AUTO 15013G20KT 2 1/4SM -SN BKN015 OVC021 M14/M17 A3001 RMK VIS VRB 1 1/4-3 SLP181
  • 131124Z AUTO 15011G22KT 6SM -SN BKN021 OVC027 M14/M17 A3000 RMK SLP180

TAF AMD TAF CYSC
Valid from the 13 at 12:00 until the 13 at 23:00 UTC


131255Z 1312/1323 27012G22KT P6SM OVC025
TEMPO 1312/1323 2SM -SHSN OVC015 RMK FCST BASED ON AUTO OBS. AUTO OBS REP NON-REPRESENTATIVE WND. NXT FCST BY 131800Z



MET'MAP, your aeronautical weather chart ! - Copyright ORBIFLY December 2007 - Disclaimer

ORBIFLY MET'MAP TEAM :

Programming & Development : Alexandra Zaïnal
Concept & Development : Baudouin d'Aumeries
Co-Development & Prog : Marc-Olivier Méhu
Technical & hardware support : Manuel Goepfert

Contact : metmap@orbifly.com




SOURCES & CREDITS :

   NOAA